createdAt,value
2019-05-14T00:00:26.024Z,9.82
2019-05-14T00:01:25.978Z,9.73
2019-05-14T00:02:25.937Z,9.74
2019-05-14T00:03:25.890Z,9.72
2019-05-14T00:04:25.842Z,9.62
2019-05-14T00:05:25.799Z,9.70
2019-05-14T00:06:25.753Z,9.64
2019-05-14T00:07:25.708Z,9.67
2019-05-14T00:08:25.663Z,9.63
2019-05-14T00:09:25.615Z,9.63
2019-05-14T00:10:25.573Z,9.59
2019-05-14T00:11:25.524Z,9.62
2019-05-14T00:12:25.477Z,9.58
2019-05-14T00:13:25.431Z,9.52
2019-05-14T00:14:35.656Z,9.51
2019-05-14T00:15:25.345Z,9.54
2019-05-14T00:16:25.293Z,9.51
2019-05-14T00:17:25.250Z,9.52
2019-05-14T00:18:25.202Z,9.54
2019-05-14T00:19:25.157Z,9.56
2019-05-14T00:20:25.111Z,9.55
2019-05-14T00:21:25.069Z,9.49
2019-05-14T00:22:25.019Z,9.49
2019-05-14T00:23:24.973Z,9.44
2019-05-14T00:24:24.926Z,9.52
2019-05-14T00:25:24.884Z,9.49
2019-05-14T00:26:24.835Z,9.47
2019-05-14T00:27:24.789Z,9.49
2019-05-14T00:28:24.752Z,9.37
2019-05-14T00:29:24.703Z,9.42
2019-05-14T00:30:24.652Z,9.37
2019-05-14T00:31:24.607Z,9.39
2019-05-14T00:32:24.560Z,9.36
2019-05-14T00:33:24.514Z,9.37
2019-05-14T00:34:24.470Z,9.34
2019-05-14T00:35:24.422Z,9.33
2019-05-14T00:36:24.377Z,9.34
2019-05-14T00:37:24.332Z,9.31
2019-05-14T00:38:24.284Z,9.30
2019-05-14T00:39:24.240Z,9.19
2019-05-14T00:40:24.195Z,9.33
2019-05-14T00:41:24.151Z,9.24
2019-05-14T00:42:24.101Z,9.22
2019-05-14T00:43:24.058Z,9.21
2019-05-14T00:44:24.008Z,9.21
2019-05-14T00:45:23.963Z,9.19
2019-05-14T00:46:23.918Z,9.19
2019-05-14T00:47:23.871Z,9.19
2019-05-14T00:48:23.825Z,9.19
2019-05-14T00:49:23.780Z,9.21
2019-05-14T00:50:23.733Z,9.12
2019-05-14T00:51:23.688Z,9.08
2019-05-14T00:52:23.641Z,9.05
2019-05-14T00:53:23.596Z,9.09
2019-05-14T00:54:23.551Z,9.15
2019-05-14T00:55:23.503Z,9.09
2019-05-14T00:56:23.456Z,9.08
2019-05-14T00:57:23.413Z,9.02
2019-05-14T00:58:23.366Z,9.03
2019-05-14T00:59:23.319Z,8.99
2019-05-14T01:00:23.283Z,8.99
2019-05-14T01:01:23.226Z,9.02
2019-05-14T01:02:23.182Z,8.97
2019-05-14T01:03:23.135Z,8.95
2019-05-14T01:04:23.095Z,8.89
2019-05-14T03:13:19.984Z,7.33
2019-05-14T03:14:19.591Z,7.28
2019-05-14T03:15:19.850Z,7.25
2019-05-14T03:16:25.903Z,7.22
2019-05-14T03:17:19.838Z,7.25
2019-05-14T03:18:19.567Z,7.23
2019-05-14T03:19:19.662Z,7.31
2019-05-14T03:20:19.674Z,7.23
2019-05-14T03:21:19.657Z,7.26
2019-05-14T03:22:24.710Z,7.29
2019-05-14T03:23:21.814Z,7.23
2019-05-14T03:24:19.447Z,7.23
2019-05-14T03:25:19.274Z,7.23
2019-05-14T03:26:19.626Z,7.29
2019-05-14T03:27:19.376Z,7.26
2019-05-14T03:28:19.613Z,7.28
2019-05-14T03:29:19.344Z,7.19
2019-05-14T03:30:16.316Z,7.19
2019-05-14T03:31:21.772Z,7.15
2019-05-14T03:32:21.725Z,7.14
2019-05-14T03:33:21.382Z,7.14
2019-05-14T03:35:03.835Z,7.23
2019-05-14T03:36:07.447Z,7.19
2019-05-14T03:37:03.430Z,7.11
2019-05-14T03:38:00.425Z,7.14
2019-05-14T03:38:59.403Z,7.10
2019-05-14T03:39:59.421Z,7.18
2019-05-14T03:41:00.144Z,7.10
2019-05-14T03:41:59.113Z,7.18
2019-05-14T03:42:59.829Z,7.15
2019-05-14T03:44:00.077Z,7.11
2019-05-14T03:44:59.695Z,7.21
2019-05-14T03:45:59.385Z,7.10
2019-05-14T03:47:04.457Z,7.14
2019-05-14T03:47:58.867Z,7.13
2019-05-14T03:49:00.104Z,7.14
2019-05-14T03:49:58.834Z,7.10
2019-05-14T03:51:00.135Z,7.00
2019-05-14T03:52:00.360Z,7.00
2019-05-14T03:52:59.390Z,7.08
2019-05-14T03:54:05.814Z,7.13
2019-05-14T03:55:01.319Z,7.04
2019-05-14T03:55:59.648Z,7.03
2019-05-14T03:57:00.320Z,7.04
2019-05-14T03:57:59.416Z,7.10
2019-05-14T03:58:59.914Z,7.03
2019-05-14T03:59:59.719Z,7.00
2019-05-14T04:01:00.345Z,7.05
2019-05-14T04:01:59.603Z,6.96
2019-05-14T04:03:00.237Z,7.00
2019-05-14T04:03:59.271Z,7.00
2019-05-14T04:04:59.858Z,7.01
2019-05-14T04:05:59.438Z,6.97
2019-05-14T04:06:59.716Z,6.95
2019-05-14T04:07:59.366Z,7.04
2019-05-14T04:09:00.290Z,6.95
2019-05-14T04:09:59.536Z,7.01
2019-05-14T04:10:59.058Z,7.01
2019-05-14T04:11:59.417Z,6.97
2019-05-14T04:12:59.821Z,6.95
2019-05-14T04:13:59.858Z,7.00
2019-05-14T04:14:59.574Z,6.97
2019-05-14T04:15:59.995Z,7.01
2019-05-14T04:17:08.081Z,6.97
2019-05-14T04:17:59.542Z,6.95
2019-05-14T04:18:59.347Z,6.89
2019-05-14T04:19:59.690Z,6.97
2019-05-14T04:20:59.318Z,6.96
2019-05-14T04:21:59.621Z,6.96
2019-05-14T04:22:56.248Z,6.96
2019-05-14T04:23:59.172Z,7.01
2019-05-14T04:24:56.153Z,7.03
2019-05-14T04:25:56.102Z,6.96
2019-05-14T04:27:03.430Z,6.96
2019-05-14T04:27:59.577Z,6.97
2019-05-14T04:28:55.978Z,7.04
2019-05-14T04:29:58.794Z,6.93
2019-05-14T04:30:58.765Z,6.97
2019-05-14T04:31:55.822Z,7.00
2019-05-14T04:32:55.777Z,6.97
2019-05-14T04:33:58.975Z,7.00
2019-05-14T04:34:59.447Z,6.96
2019-05-14T04:35:55.637Z,7.07
2019-05-14T04:36:55.588Z,7.00
2019-05-14T04:37:58.689Z,7.04
2019-05-14T04:38:55.579Z,7.04
2019-05-14T04:39:55.446Z,7.00
2019-05-14T04:40:55.397Z,7.00
2019-05-14T04:41:55.354Z,7.03
2019-05-14T04:42:55.306Z,7.01
2019-05-14T04:43:55.257Z,7.05
2019-05-14T04:44:55.213Z,7.08
2019-05-14T04:45:55.166Z,7.00
2019-05-14T04:46:55.125Z,7.04
2019-05-14T04:47:55.076Z,7.01
2019-05-14T04:48:55.030Z,7.03
2019-05-14T04:49:54.977Z,7.07
2019-05-14T04:50:54.930Z,6.97
2019-05-14T04:51:54.883Z,7.05
2019-05-14T04:52:54.846Z,7.11
2019-05-14T04:53:54.788Z,7.13
2019-05-14T04:54:54.739Z,7.19
2019-05-14T04:55:54.698Z,7.15
2019-05-14T04:56:54.659Z,7.11
2019-05-14T04:57:54.602Z,7.21
2019-05-14T04:58:54.562Z,7.21
2019-05-14T04:59:54.524Z,7.18
2019-05-14T05:00:54.463Z,7.29
2019-05-14T05:01:54.415Z,7.25
2019-05-14T05:02:54.372Z,7.23
2019-05-14T05:03:54.318Z,7.33
2019-05-14T05:04:54.272Z,7.31
2019-05-14T05:05:54.232Z,7.32
2019-05-14T05:06:54.183Z,7.39
2019-05-14T05:07:54.140Z,7.37
2019-05-14T05:08:54.097Z,7.41
2019-05-14T05:09:54.039Z,7.39
2019-05-14T05:10:53.993Z,7.36
2019-05-14T05:11:53.947Z,7.43
2019-05-14T05:12:53.902Z,7.50
2019-05-14T05:13:53.853Z,7.43
2019-05-14T05:14:53.801Z,7.46
2019-05-14T05:15:53.758Z,7.46
2019-05-14T05:16:53.713Z,7.46
2019-05-14T05:17:53.671Z,7.48
2019-05-14T05:18:53.617Z,7.56
2019-05-14T05:19:53.570Z,7.59
2019-05-14T05:20:53.523Z,7.66
2019-05-14T05:21:53.479Z,7.61
2019-05-14T05:22:53.432Z,7.55
2019-05-14T05:23:53.385Z,7.53
2019-05-14T05:24:53.339Z,7.74
2019-05-14T05:25:53.297Z,7.78
2019-05-14T05:26:53.243Z,7.75
2019-05-14T05:27:56.366Z,7.70
2019-05-14T05:29:05.606Z,7.69
2019-05-14T05:29:53.113Z,7.77
2019-05-14T05:30:53.056Z,7.84
2019-05-14T05:32:35.381Z,7.78
2019-05-14T05:33:35.331Z,7.90
2019-05-14T05:34:35.289Z,7.96
2019-05-14T05:35:35.238Z,8.03
2019-05-14T05:36:35.196Z,7.93
2019-05-14T05:37:35.146Z,8.05
2019-05-14T05:38:35.101Z,7.99
2019-05-14T05:39:35.051Z,8.09
2019-05-14T05:40:35.004Z,8.13
2019-05-14T05:41:34.961Z,8.18
2019-05-14T05:42:34.915Z,8.21
2019-05-14T05:43:34.868Z,8.20
2019-05-14T05:44:34.817Z,8.17
2019-05-14T05:45:34.772Z,8.31
2019-05-14T05:46:34.727Z,8.38
2019-05-14T05:47:34.681Z,8.44
2019-05-14T05:48:34.641Z,8.39
2019-05-14T05:49:34.585Z,8.52
2019-05-14T05:50:34.539Z,8.52
2019-05-14T05:51:34.496Z,8.59
2019-05-14T05:52:34.446Z,8.54
2019-05-14T05:53:34.399Z,8.66
2019-05-14T05:54:34.358Z,8.59
2019-05-14T05:55:34.310Z,8.57
2019-05-14T05:56:34.265Z,8.61
2019-05-14T05:57:34.215Z,8.68
2019-05-14T05:58:34.171Z,8.71
2019-05-14T05:59:34.128Z,8.79
2019-05-14T06:00:34.077Z,8.82
2019-05-14T06:01:42.835Z,8.95
2019-05-14T06:02:33.989Z,8.96
2019-05-14T06:03:33.940Z,8.99
2019-05-14T06:04:33.893Z,9.00
2019-05-14T06:05:33.843Z,8.99
2019-05-14T06:06:33.799Z,9.03
2019-05-14T06:07:33.752Z,9.09
2019-05-14T06:08:33.706Z,9.16
2019-05-14T06:09:33.667Z,9.16
2019-05-14T06:10:33.619Z,9.16
2019-05-14T06:11:33.566Z,9.24
2019-05-14T06:12:33.518Z,9.24
2019-05-14T06:13:33.478Z,9.26
2019-05-14T06:14:33.424Z,9.42
2019-05-14T06:15:44.628Z,9.36
2019-05-14T06:16:33.335Z,9.36
2019-05-14T06:17:33.286Z,9.48
2019-05-14T06:18:34.531Z,9.34
2019-05-14T06:20:33.150Z,9.48
2019-05-14T06:21:33.104Z,9.55
2019-05-14T06:22:33.059Z,9.52
2019-05-14T06:23:33.017Z,9.58
2019-05-14T06:24:32.968Z,9.58
2019-05-14T06:25:32.919Z,9.64
2019-05-14T06:26:32.871Z,9.58
2019-05-14T06:27:32.832Z,9.66
2019-05-14T06:28:33.719Z,9.67
2019-05-14T06:29:32.736Z,9.66
2019-05-14T06:30:32.688Z,9.66
2019-05-14T06:31:32.643Z,9.72
2019-05-14T06:32:32.598Z,9.73
2019-05-14T06:33:32.561Z,9.80
2019-05-14T06:34:32.505Z,9.84
2019-05-14T06:35:32.460Z,9.81
2019-05-14T06:36:32.411Z,9.87
2019-05-14T06:37:32.374Z,9.91
2019-05-14T06:38:32.320Z,9.85
2019-05-14T06:39:32.275Z,9.95
2019-05-14T06:40:32.233Z,10.05
2019-05-14T06:41:32.182Z,10.09
2019-05-14T06:42:32.142Z,10.15
2019-05-14T06:43:32.121Z,10.18
2019-05-14T06:44:32.043Z,10.20
2019-05-14T06:45:32.008Z,10.31
2019-05-14T06:46:31.954Z,10.27
2019-05-14T06:47:31.908Z,10.34
2019-05-14T06:48:34.676Z,10.38
2019-05-14T06:49:31.815Z,10.42
2019-05-14T06:50:31.769Z,10.48
2019-05-14T06:51:31.723Z,10.49
2019-05-14T06:52:31.682Z,10.53
2019-05-14T06:53:31.642Z,10.59
2019-05-14T06:54:31.592Z,10.65
2019-05-14T06:55:31.542Z,10.61
2019-05-14T06:56:31.497Z,10.75
2019-05-14T06:57:31.450Z,10.71
2019-05-14T06:58:31.401Z,10.72
2019-05-14T06:59:31.360Z,10.87
2019-05-14T07:00:31.311Z,10.89
2019-05-14T07:01:31.265Z,10.92
2019-05-14T07:02:31.221Z,11.04
2019-05-14T07:03:31.173Z,11.12
2019-05-14T07:04:31.132Z,11.07
2019-05-14T07:05:31.084Z,11.18
2019-05-14T07:06:31.038Z,11.30
2019-05-14T07:07:31.121Z,11.34
2019-05-14T07:08:30.955Z,11.35
2019-05-14T07:09:30.921Z,11.45
2019-05-14T07:10:30.864Z,11.45
2019-05-14T07:11:30.809Z,11.43
2019-05-14T07:12:30.765Z,11.45
2019-05-14T07:13:30.740Z,11.49
2019-05-14T07:14:30.675Z,11.55
2019-05-14T07:15:30.632Z,11.62
2019-05-14T07:16:30.586Z,11.68
2019-05-14T07:17:30.542Z,11.67
2019-05-14T07:18:45.482Z,11.68
2019-05-14T07:19:30.449Z,11.73
2019-05-14T07:20:30.404Z,11.80
2019-05-14T07:21:30.362Z,11.85
2019-05-14T07:22:30.316Z,11.85
2019-05-14T07:23:30.270Z,11.89
2019-05-14T07:24:30.227Z,12.00
2019-05-14T07:25:30.180Z,12.05
2019-05-14T07:26:30.135Z,11.97
2019-05-14T07:27:30.088Z,12.05
2019-05-14T07:28:30.057Z,12.12
2019-05-14T07:29:30.001Z,12.17
2019-05-14T07:30:29.954Z,12.17
2019-05-14T07:31:29.908Z,12.26
2019-05-14T07:32:29.862Z,12.35
2019-05-14T07:33:29.821Z,12.35
2019-05-14T07:34:29.770Z,12.40
2019-05-14T07:35:29.728Z,12.39
2019-05-14T07:36:29.720Z,12.45
2019-05-14T07:37:29.638Z,12.47
2019-05-14T07:38:29.595Z,12.53
2019-05-14T07:39:29.549Z,12.48
2019-05-14T07:40:29.501Z,12.50
2019-05-14T07:41:29.462Z,12.55
2019-05-14T07:43:29.371Z,12.58
2019-05-14T07:44:29.804Z,12.62
2019-05-14T07:45:29.279Z,12.61
2019-05-14T07:46:29.236Z,12.63
2019-05-14T07:47:29.300Z,12.72
2019-05-14T07:48:29.146Z,12.76
2019-05-14T07:49:29.282Z,12.83
2019-05-14T07:50:29.161Z,12.84
2019-05-14T07:51:29.013Z,12.90
2019-05-14T07:52:28.966Z,12.90
2019-05-14T07:53:38.658Z,12.90
2019-05-14T07:54:28.879Z,12.88
2019-05-14T07:55:28.983Z,12.98
2019-05-14T07:56:29.444Z,13.09
2019-05-14T07:57:28.744Z,13.12
2019-05-14T07:58:28.702Z,13.19
2019-05-14T07:59:28.923Z,13.13
2019-05-14T08:00:28.684Z,13.19
2019-05-14T08:01:28.571Z,13.31
2019-05-14T08:02:29.099Z,13.30
2019-05-14T08:03:28.719Z,13.33
2019-05-14T08:04:29.110Z,13.46
2019-05-14T08:05:28.856Z,13.42
2019-05-14T08:06:28.345Z,13.50
2019-05-14T08:07:28.339Z,13.54
2019-05-14T08:08:29.275Z,13.54
2019-05-14T08:09:28.483Z,13.54
2019-05-14T08:10:28.965Z,13.54
2019-05-14T08:11:28.188Z,13.67
2019-05-14T08:12:28.499Z,13.75
2019-05-14T08:13:28.460Z,13.76
2019-05-14T08:14:29.490Z,13.65
2019-05-14T08:15:28.074Z,13.76
2019-05-14T08:16:28.863Z,13.78
2019-05-14T08:17:28.167Z,13.78
2019-05-14T08:18:29.034Z,13.80
2019-05-14T08:19:30.392Z,13.83
2019-05-14T08:20:28.652Z,13.93
2019-05-14T08:21:28.546Z,14.00
2019-05-14T08:22:29.141Z,14.07
2019-05-14T08:23:28.249Z,14.07
2019-05-14T08:24:30.021Z,14.18
2019-05-14T08:25:28.320Z,14.19
2019-05-14T08:26:29.299Z,14.23
2019-05-14T08:27:30.944Z,14.30
2019-05-14T08:28:29.023Z,14.30
2019-05-14T08:29:28.703Z,14.31
2019-05-14T08:30:28.372Z,14.26
2019-05-14T08:31:29.256Z,14.36
2019-05-14T08:32:28.424Z,14.37
2019-05-14T08:33:29.065Z,14.41
2019-05-14T08:34:30.363Z,14.40
2019-05-14T08:35:29.053Z,14.41
2019-05-14T08:36:28.648Z,14.53
2019-05-14T08:37:27.955Z,14.56
2019-05-14T08:38:28.470Z,14.71
2019-05-14T08:39:28.604Z,14.78
2019-05-14T08:40:28.738Z,14.85
2019-05-14T08:41:28.811Z,14.81
2019-05-14T08:42:28.936Z,14.93
2019-05-14T08:43:29.024Z,15.10
2019-05-14T08:44:29.183Z,15.11
2019-05-14T08:45:28.324Z,15.22
2019-05-14T08:46:28.350Z,15.33
2019-05-14T08:47:28.988Z,15.35
2019-05-14T08:48:29.016Z,15.33
2019-05-14T08:49:41.167Z,15.37
2019-05-14T08:50:28.129Z,15.54
2019-05-14T08:51:29.163Z,15.52
2019-05-14T08:52:28.829Z,15.47
2019-05-14T08:53:28.576Z,15.60
2019-05-14T08:54:28.387Z,15.60
2019-05-14T08:55:26.195Z,15.60
2019-05-14T08:56:28.207Z,15.72
2019-05-14T08:57:26.759Z,15.67
2019-05-14T08:58:26.341Z,15.76
2019-05-14T08:59:28.491Z,15.72
2019-05-14T09:00:25.979Z,15.80
2019-05-14T09:01:25.935Z,15.92
2019-05-14T09:02:25.893Z,16.02
2019-05-14T09:03:28.547Z,16.00
2019-05-14T09:04:29.759Z,16.10
2019-05-14T09:05:25.762Z,16.17
2019-05-14T09:06:25.717Z,16.25
2019-05-14T09:07:25.677Z,16.29
2019-05-14T09:08:28.269Z,16.34
2019-05-14T09:09:25.589Z,16.36
2019-05-14T09:10:28.395Z,16.43
2019-05-14T09:11:26.322Z,16.55
2019-05-14T09:12:25.457Z,16.59
2019-05-14T09:13:25.415Z,16.68
2019-05-14T09:14:25.372Z,16.68
2019-05-14T09:16:41.687Z,16.84
2019-05-14T09:17:25.246Z,16.83
2019-05-14T09:19:25.168Z,16.92
2019-05-14T09:20:25.118Z,17.09
2019-05-14T09:21:25.077Z,17.13
2019-05-14T09:22:25.034Z,17.16
2019-05-14T09:23:24.989Z,17.19
2019-05-14T09:24:24.948Z,17.12
2019-05-14T09:25:24.905Z,17.09
2019-05-14T09:26:24.864Z,17.09
2019-05-14T09:27:24.821Z,16.98
2019-05-14T09:28:24.776Z,16.99
2019-05-14T09:29:26.043Z,16.95
2019-05-14T09:30:24.715Z,16.99
2019-05-14T09:31:24.671Z,17.02
2019-05-14T09:32:24.604Z,17.05
2019-05-14T09:33:24.717Z,17.16
2019-05-14T09:34:24.520Z,17.16
2019-05-14T09:35:24.479Z,17.22
2019-05-14T09:36:24.593Z,17.38
2019-05-14T09:37:24.393Z,17.46
2019-05-14T09:38:24.350Z,17.52
2019-05-14T09:39:24.322Z,17.50
2019-05-14T09:40:24.266Z,17.59
2019-05-14T09:41:27.518Z,17.68
2019-05-14T09:42:24.194Z,17.79
2019-05-14T09:43:24.138Z,17.80
2019-05-14T09:44:24.095Z,17.93
2019-05-14T09:45:24.056Z,17.88
2019-05-14T09:46:24.016Z,18.00
2019-05-14T09:47:23.970Z,17.98
2019-05-14T09:48:23.929Z,18.19
2019-05-14T09:49:23.887Z,18.05
2019-05-14T09:50:23.844Z,18.19
2019-05-14T09:51:23.800Z,18.15
2019-05-14T09:52:23.756Z,18.12
2019-05-14T09:53:23.718Z,18.21
2019-05-14T09:54:23.672Z,18.30
2019-05-14T09:55:23.631Z,18.21
2019-05-14T09:56:23.589Z,18.36
2019-05-14T09:57:23.547Z,18.41
2019-05-14T09:58:23.504Z,18.48
2019-05-14T09:59:23.460Z,18.45
2019-05-14T10:00:23.429Z,18.45
2019-05-14T10:01:23.381Z,18.42
2019-05-14T10:02:23.336Z,18.34
2019-05-14T10:03:23.298Z,18.37
2019-05-14T10:04:23.250Z,18.26
2019-05-14T10:05:23.206Z,18.27
2019-05-14T10:06:23.167Z,18.37
2019-05-14T10:07:23.126Z,18.37
2019-05-14T10:08:23.082Z,18.45
2019-05-14T10:09:23.042Z,18.43
2019-05-14T10:10:23.001Z,18.49
2019-05-14T10:11:22.957Z,18.46
2019-05-14T10:12:22.918Z,18.37
2019-05-14T10:13:22.878Z,18.37
2019-05-14T10:14:22.836Z,18.31
2019-05-14T10:15:22.793Z,18.27
2019-05-14T10:16:22.746Z,18.24
2019-05-14T10:17:22.704Z,18.05
2019-05-14T10:18:22.666Z,18.05
2019-05-14T10:19:22.620Z,17.80
2019-05-14T10:20:36.364Z,17.69
2019-05-14T10:21:22.536Z,17.57
2019-05-14T10:22:22.494Z,17.44
2019-05-14T10:23:22.456Z,17.57
2019-05-14T10:24:22.412Z,17.53
2019-05-14T10:25:22.365Z,17.63
2019-05-14T10:26:22.330Z,17.76
2019-05-14T10:27:22.287Z,17.84
2019-05-14T10:28:22.242Z,17.86
2019-05-14T10:29:22.199Z,17.94
2019-05-14T10:30:22.158Z,18.05
2019-05-14T10:31:22.115Z,18.08
2019-05-14T10:32:22.073Z,18.30
2019-05-14T10:33:22.029Z,18.28
2019-05-14T10:34:21.987Z,18.42
2019-05-14T10:35:21.946Z,18.46
2019-05-14T10:36:21.935Z,18.53
2019-05-14T10:37:21.878Z,18.71
2019-05-14T10:38:21.821Z,18.71
2019-05-14T10:39:21.774Z,18.81
2019-05-14T10:40:21.733Z,18.83
2019-05-14T10:41:21.700Z,18.86
2019-05-14T10:42:21.649Z,19.05
2019-05-14T10:43:21.610Z,19.29
2019-05-14T10:44:21.570Z,19.32
2019-05-14T10:45:21.525Z,19.48
2019-05-14T10:46:21.485Z,19.55
2019-05-14T10:47:21.446Z,19.56
2019-05-14T10:48:21.408Z,19.63
2019-05-14T10:49:23.725Z,19.70
2019-05-14T10:50:21.331Z,19.75
2019-05-14T10:51:21.278Z,19.85
2019-05-14T10:52:21.237Z,19.87
2019-05-14T10:53:21.195Z,19.99
2019-05-14T10:54:25.216Z,20.10
2019-05-14T10:55:21.109Z,20.00
2019-05-14T10:56:24.699Z,19.93
2019-05-14T10:57:21.027Z,19.94
2019-05-14T10:58:20.985Z,19.71
2019-05-14T10:59:20.949Z,19.52
2019-05-14T11:00:20.904Z,19.42
2019-05-14T11:01:22.727Z,19.26
2019-05-14T11:02:20.825Z,19.22
2019-05-14T11:03:20.785Z,19.20
2019-05-14T11:04:20.738Z,19.12
2019-05-14T11:05:20.698Z,19.11
2019-05-14T11:06:20.655Z,19.19
2019-05-14T11:07:20.638Z,19.23
2019-05-14T11:08:20.573Z,19.29
2019-05-14T11:09:20.527Z,19.34
2019-05-14T11:10:20.485Z,19.41
2019-05-14T11:11:20.447Z,19.52
2019-05-14T11:12:20.403Z,19.74
2019-05-14T11:13:20.365Z,19.75
2019-05-14T11:14:20.325Z,19.75
2019-05-14T11:15:20.285Z,19.89
2019-05-14T11:16:20.235Z,19.81
2019-05-14T11:17:20.195Z,19.87
2019-05-14T11:18:20.185Z,19.92
2019-05-14T11:19:20.115Z,19.99
2019-05-14T11:20:20.069Z,19.94
2019-05-14T11:21:26.407Z,19.92
2019-05-14T11:22:19.987Z,19.99
2019-05-14T11:23:19.949Z,20.11
2019-05-14T11:24:19.907Z,20.32
2019-05-14T11:25:19.868Z,20.30
2019-05-14T11:26:19.834Z,20.40
2019-05-14T11:27:19.786Z,20.56
2019-05-14T11:28:19.743Z,20.70
2019-05-14T11:29:19.702Z,20.85
2019-05-14T11:30:19.661Z,20.98
2019-05-14T11:31:19.625Z,21.17
2019-05-14T11:32:19.577Z,21.10
2019-05-14T11:33:19.538Z,21.29
2019-05-14T11:34:19.544Z,21.38
2019-05-14T11:35:19.456Z,21.60
2019-05-14T11:36:19.436Z,21.91
2019-05-14T11:37:19.373Z,22.06
2019-05-14T11:38:32.171Z,22.23
2019-05-14T11:39:19.287Z,22.52
2019-05-14T11:40:19.243Z,22.65
2019-05-14T11:41:19.216Z,22.99
2019-05-14T11:42:19.823Z,23.34
2019-05-14T11:43:19.122Z,23.88
2019-05-14T11:44:19.079Z,24.22
2019-05-14T11:45:19.048Z,24.43
2019-05-14T11:46:33.769Z,24.81
2019-05-14T11:47:18.954Z,25.24
2019-05-14T11:48:19.441Z,25.46
2019-05-14T11:49:19.513Z,25.95
2019-05-14T11:50:19.433Z,26.30
2019-05-14T11:51:23.758Z,26.48
2019-05-14T11:52:18.750Z,26.92
2019-05-14T11:53:20.260Z,27.20
2019-05-14T11:54:22.761Z,27.19
2019-05-14T11:55:18.932Z,27.13
2019-05-14T11:56:19.467Z,27.16
2019-05-14T11:57:19.294Z,27.29
2019-05-14T11:58:20.602Z,27.58
2019-05-14T11:59:19.002Z,27.50
2019-05-14T12:00:19.488Z,27.37
2019-05-14T12:01:19.041Z,27.90
2019-05-14T12:02:19.035Z,28.19
2019-05-14T12:03:19.555Z,28.20
2019-05-14T12:04:18.767Z,27.72
2019-05-14T12:05:18.962Z,27.90
2019-05-14T12:06:18.738Z,27.40
2019-05-14T12:07:18.684Z,26.98
2019-05-14T12:08:18.655Z,27.94
2019-05-14T12:09:18.920Z,28.22
2019-05-14T12:10:18.743Z,28.55
2019-05-14T12:11:19.378Z,28.90
2019-05-14T12:12:19.010Z,28.56
2019-05-14T12:13:19.386Z,27.81
2019-05-14T12:14:19.091Z,27.01
2019-05-14T12:15:18.722Z,26.13
2019-05-14T12:16:17.779Z,26.97
2019-05-14T12:17:17.734Z,27.52
2019-05-14T12:19:18.813Z,27.29
2019-05-14T12:20:17.600Z,27.43
2019-05-14T12:21:17.563Z,27.60
2019-05-14T12:22:19.101Z,27.08
2019-05-14T12:23:19.168Z,27.64
2019-05-14T12:24:18.455Z,28.16
2019-05-14T12:25:18.801Z,27.57
2019-05-14T12:27:19.212Z,27.10
2019-05-14T12:28:19.069Z,26.82
2019-05-14T12:29:17.239Z,27.22
2019-05-14T12:30:19.554Z,27.44
2019-05-14T12:31:17.165Z,27.41
2019-05-14T12:32:18.835Z,28.10
2019-05-14T12:33:19.710Z,28.71
2019-05-14T12:34:18.662Z,27.93
2019-05-14T12:35:19.597Z,27.35
2019-05-14T12:36:19.467Z,27.82
2019-05-14T12:37:18.606Z,27.45
2019-05-14T12:38:19.507Z,27.19
2019-05-14T12:39:18.803Z,26.96
2019-05-14T12:40:19.199Z,27.48
2019-05-14T12:41:19.409Z,27.73
2019-05-14T12:42:19.354Z,28.45
2019-05-14T12:43:18.821Z,29.07
2019-05-14T12:44:19.375Z,29.61
2019-05-14T12:45:19.141Z,29.99
2019-05-14T12:46:16.569Z,30.43
2019-05-14T12:47:18.873Z,30.92
2019-05-14T12:48:18.779Z,30.08
2019-05-14T12:49:18.737Z,29.15
2019-05-14T12:50:16.408Z,28.97
2019-05-14T12:51:18.624Z,29.77
2019-05-14T12:52:25.157Z,29.99
2019-05-14T12:53:16.296Z,30.54
2019-05-14T12:54:16.265Z,31.08
2019-05-14T12:55:19.023Z,30.99
2019-05-14T12:56:18.595Z,30.35
2019-05-14T12:57:18.775Z,30.89
2019-05-14T12:58:16.108Z,31.41
2019-05-14T12:59:16.070Z,31.98
2019-05-14T13:00:16.031Z,32.42
2019-05-14T13:01:15.998Z,32.71
2019-05-14T13:02:18.540Z,31.93
2019-05-14T13:03:15.925Z,30.91
2019-05-14T13:04:15.897Z,30.01
2019-05-14T13:05:18.176Z,29.32
2019-05-14T13:06:18.828Z,29.74
2019-05-14T13:08:18.279Z,29.46
2019-05-14T13:09:19.114Z,30.03
2019-05-14T13:10:15.662Z,30.13
2019-05-14T13:11:15.629Z,30.63
2019-05-14T13:12:15.589Z,30.91
2019-05-14T13:13:15.558Z,31.04
2019-05-14T13:14:15.518Z,30.76
2019-05-14T13:18:05.005Z,28.80
2019-05-14T13:19:04.967Z,28.40
2019-05-14T13:20:04.935Z,28.43
2019-05-14T13:21:04.895Z,28.25
2019-05-14T13:22:13.064Z,29.42
2019-05-14T13:23:04.815Z,28.83
2019-05-14T13:24:04.784Z,28.38
2019-05-14T13:25:04.739Z,29.27
2019-05-14T13:26:04.704Z,29.53
2019-05-14T13:27:04.679Z,28.93
2019-05-14T13:28:04.640Z,29.61
2019-05-14T13:29:08.177Z,29.99
2019-05-14T13:30:04.555Z,29.89
2019-05-14T13:31:04.523Z,28.94
2019-05-14T13:32:04.889Z,27.88
2019-05-14T13:33:04.450Z,27.37
2019-05-14T13:34:04.420Z,26.73
2019-05-14T13:35:04.373Z,26.81
2019-05-14T13:36:04.334Z,27.90
2019-05-14T13:37:04.319Z,28.60
2019-05-14T13:38:04.286Z,29.20
2019-05-14T13:39:04.223Z,29.49
2019-05-14T13:40:04.199Z,30.05
2019-05-14T13:41:04.148Z,30.65
2019-05-14T13:42:48.983Z,31.00
2019-05-14T13:43:50.092Z,31.29
2019-05-14T13:44:46.422Z,31.57
2019-05-14T13:45:49.183Z,31.87
2019-05-14T13:46:48.646Z,32.22
2019-05-14T13:47:48.775Z,32.56
2019-05-14T13:48:49.571Z,32.76
2019-05-14T13:49:48.774Z,32.83
2019-05-14T13:50:48.970Z,32.07
2019-05-14T13:51:48.835Z,31.92
2019-05-14T13:52:59.819Z,31.41
2019-05-14T13:53:46.097Z,30.71
2019-05-14T13:54:46.059Z,30.13
2019-05-14T13:55:50.553Z,30.63
2019-05-14T13:56:48.278Z,31.07
2019-05-14T13:57:48.498Z,31.37
2019-05-14T13:58:48.646Z,31.54
2019-05-14T13:59:45.882Z,31.59
2019-05-14T14:00:45.845Z,31.51
2019-05-14T14:01:48.483Z,31.13
2019-05-14T14:02:45.780Z,31.00
2019-05-14T14:03:58.432Z,30.83
2019-05-14T14:04:48.091Z,30.74
2019-05-14T14:05:45.668Z,30.67
2019-05-14T14:06:45.661Z,29.90
2019-05-14T14:07:48.369Z,29.18
2019-05-14T14:08:45.562Z,28.71
2019-05-14T14:09:45.533Z,28.03
2019-05-14T14:10:52.259Z,27.43
2019-05-14T14:11:45.455Z,27.10
2019-05-14T14:12:45.457Z,27.01
2019-05-14T14:13:45.395Z,27.10
2019-05-14T14:14:45.350Z,28.01
2019-05-14T14:15:45.310Z,28.38
2019-05-14T14:16:45.274Z,28.83
2019-05-14T14:17:45.241Z,28.94
2019-05-14T14:18:45.205Z,29.10
2019-05-14T14:19:45.217Z,29.28
2019-05-14T14:20:45.133Z,29.43
2019-05-14T14:21:45.096Z,29.31
2019-05-14T14:22:45.059Z,29.61
2019-05-14T14:23:45.028Z,29.86
2019-05-14T14:24:44.985Z,29.79
2019-05-14T14:25:44.970Z,29.53
2019-05-14T14:26:44.912Z,29.21
2019-05-14T14:27:44.878Z,29.40
2019-05-14T14:28:44.841Z,29.99
2019-05-14T14:29:44.807Z,30.40
2019-05-14T14:30:44.769Z,30.83
2019-05-14T14:31:44.736Z,31.04
2019-05-14T14:32:44.705Z,31.20
2019-05-14T14:33:44.663Z,31.10
2019-05-14T14:34:44.630Z,31.05
2019-05-14T14:35:44.591Z,30.93
2019-05-14T14:36:44.561Z,31.00
2019-05-14T14:37:44.530Z,31.25
2019-05-14T14:38:44.493Z,31.48
2019-05-14T14:39:45.059Z,31.55
2019-05-14T14:40:44.423Z,31.95
2019-05-14T14:41:44.397Z,32.38
2019-05-14T14:42:44.351Z,32.41
2019-05-14T14:43:44.671Z,32.51
2019-05-14T14:44:44.285Z,32.73
2019-05-14T14:45:46.232Z,32.83
2019-05-14T14:46:44.215Z,32.97
2019-05-14T14:47:44.201Z,33.09
2019-05-14T14:48:44.147Z,33.19
2019-05-14T14:49:44.443Z,33.23
2019-05-14T14:50:44.089Z,33.31
2019-05-14T14:51:45.310Z,33.40
2019-05-14T14:52:44.024Z,33.33
2019-05-14T14:53:58.376Z,33.09
2019-05-14T14:54:43.954Z,33.01
2019-05-14T14:55:43.927Z,32.95
2019-05-14T14:56:43.892Z,32.71
2019-05-14T14:57:46.034Z,32.59
2019-05-14T14:58:43.827Z,32.53
2019-05-14T14:59:43.798Z,32.41
2019-05-14T15:00:43.766Z,32.24
2019-05-14T15:01:43.746Z,32.30
2019-05-14T15:02:43.700Z,32.30
2019-05-14T15:03:43.706Z,32.63
2019-05-14T15:04:43.644Z,32.83
2019-05-14T15:05:43.621Z,32.97
2019-05-14T15:06:43.578Z,32.94
2019-05-14T15:07:43.556Z,32.86
2019-05-14T15:08:43.518Z,32.72
2019-05-14T15:09:43.504Z,32.72
2019-05-14T15:10:43.455Z,32.29
2019-05-14T15:11:43.429Z,31.72
2019-05-14T15:12:43.392Z,31.92
2019-05-14T15:13:43.368Z,32.24
2019-05-14T15:14:43.336Z,32.12
2019-05-14T15:15:43.299Z,32.11
2019-05-14T15:16:43.279Z,31.98
2019-05-14T15:17:43.241Z,32.17
2019-05-14T15:18:43.209Z,31.97
2019-05-14T15:19:43.180Z,31.72
2019-05-14T15:20:43.151Z,31.50